Main page
METAR-TAF:

METAR-TAF

Airports :

Kona International Airport

Kailua, Hawaii, United States

latitude: 19-44-27N, longitude: 156-03-02W, elevation: 13 m

Current weather observation

The report was made 16 minutes ago, at 13:53 UTC
Wind 9 kt from the North
Temperature 20°C
Humidity 64%
Pressure 1018 hPa
Visibility: 16.1 km
Clear sky

METAR: PHKO 291353Z AUTO 01009KT 10SM CLR 20/13 A3006 RMK AO2 SLP177 T02000128 TSNO

Time: 04:09 (14:09 UTC)

Forecast

The report was made 2 hours and 39 minutes ago, at 11:30 UTC
Forecast valid from 29 at 12 UTC to 01 at 12 UTC
Wind 7 kt from the East
Visibility: 10 km
Few clouds at a height of 5000 ft
From 29 at 2000 UTC
Wind 11 kt from the South/Southwest
Visibility: 10 km
Scattered clouds at a height of 5000 ft
From 01 at 0400 UTC
Wind 7 kt from the East
Visibility: 10 km
Scattered clouds at a height of 5000 ft

TAF: PHKO 291130Z 2912/0112 10007KT P6SM FEW050 FM292000 20011KT P6SM SCT050 FM010400 09007KT P6SM SCT050

Weather observations and forecasts of more than 4000 airports (METAR and TAF reports).

The available stations are represented by yellow and red dots on the map.

Hover mouse over dot to see the name of the station.

Then click to see weather observations and forecasts.

To change the map : click on the green buttons with a black cross to zoom in, on the green button with a dash to zoom out, or on the green arrows for adjacent maps.


METAR-TAF: